sensor_id;sensor_type;location;lat;lon;timestamp;P1;durP1;ratioP1;P2;durP2;ratioP2
15486;SDS011;7845;53.698;10.078;2023-09-08T00:01:34;11.20;;;8.07;;
15486;SDS011;7845;53.698;10.078;2023-09-08T00:03:59;8.57;;;6.80;;
15486;SDS011;7845;53.698;10.078;2023-09-08T00:06:24;8.20;;;7.00;;
15486;SDS011;7845;53.698;10.078;2023-09-08T00:08:50;8.70;;;7.70;;
15486;SDS011;7845;53.698;10.078;2023-09-08T00:11:15;8.43;;;7.40;;
15486;SDS011;7845;53.698;10.078;2023-09-08T00:13:43;9.63;;;8.27;;
15486;SDS011;7845;53.698;10.078;2023-09-08T00:16:10;11.03;;;8.30;;
15486;SDS011;7845;53.698;10.078;2023-09-08T00:18:35;9.33;;;8.17;;
15486;SDS011;7845;53.698;10.078;2023-09-08T00:21:04;9.27;;;8.27;;
15486;SDS011;7845;53.698;10.078;2023-09-08T00:23:30;13.47;;;9.30;;
15486;SDS011;7845;53.698;10.078;2023-09-08T00:25:55;9.60;;;8.00;;
15486;SDS011;7845;53.698;10.078;2023-09-08T00:28:21;8.70;;;7.80;;
15486;SDS011;7845;53.698;10.078;2023-09-08T00:30:46;11.00;;;8.80;;
15486;SDS011;7845;53.698;10.078;2023-09-08T00:33:12;12.00;;;8.57;;
15486;SDS011;7845;53.698;10.078;2023-09-08T00:35:38;13.60;;;7.70;;
15486;SDS011;7845;53.698;10.078;2023-09-08T00:38:04;8.80;;;7.80;;
15486;SDS011;7845;53.698;10.078;2023-09-08T00:40:32;10.17;;;8.40;;
15486;SDS011;7845;53.698;10.078;2023-09-08T00:42:57;10.07;;;8.43;;
15486;SDS011;7845;53.698;10.078;2023-09-08T00:45:23;11.00;;;7.63;;
15486;SDS011;7845;53.698;10.078;2023-09-08T00:47:52;8.90;;;7.03;;
15486;SDS011;7845;53.698;10.078;2023-09-08T00:50:17;9.53;;;7.50;;
15486;SDS011;7845;53.698;10.078;2023-09-08T00:52:43;9.07;;;7.60;;
15486;SDS011;7845;53.698;10.078;2023-09-08T00:55:08;9.60;;;8.50;;
15486;SDS011;7845;53.698;10.078;2023-09-08T00:57:34;9.00;;;7.87;;
15486;SDS011;7845;53.698;10.078;2023-09-08T01:00:03;9.13;;;7.90;;
15486;SDS011;7845;53.698;10.078;2023-09-08T01:02:36;9.97;;;8.57;;
15486;SDS011;7845;53.698;10.078;2023-09-08T01:05:02;9.80;;;8.70;;
15486;SDS011;7845;53.698;10.078;2023-09-08T01:07:27;9.30;;;8.00;;
15486;SDS011;7845;53.698;10.078;2023-09-08T01:09:56;9.50;;;7.80;;
15486;SDS011;7845;53.698;10.078;2023-09-08T01:12:25;10.73;;;8.30;;
15486;SDS011;7845;53.698;10.078;2023-09-08T01:15:01;10.27;;;7.83;;
15486;SDS011;7845;53.698;10.078;2023-09-08T01:17:29;11.70;;;8.20;;
15486;SDS011;7845;53.698;10.078;2023-09-08T01:20:01;10.40;;;8.90;;
15486;SDS011;7845;53.698;10.078;2023-09-08T01:22:39;10.17;;;7.67;;
15486;SDS011;7845;53.698;10.078;2023-09-08T01:25:31;10.03;;;7.63;;
15486;SDS011;7845;53.698;10.078;2023-09-08T01:27:58;9.53;;;7.20;;
15486;SDS011;7845;53.698;10.078;2023-09-08T01:30:26;10.57;;;7.67;;
15486;SDS011;7845;53.698;10.078;2023-09-08T01:32:57;9.67;;;7.60;;
15486;SDS011;7845;53.698;10.078;2023-09-08T01:35:22;9.23;;;8.20;;
15486;SDS011;7845;53.698;10.078;2023-09-08T01:37:51;7.87;;;7.10;;
15486;SDS011;7845;53.698;10.078;2023-09-08T01:40:17;10.57;;;7.67;;
15486;SDS011;7845;53.698;10.078;2023-09-08T01:42:44;9.40;;;8.37;;
15486;SDS011;7845;53.698;10.078;2023-09-08T01:45:14;8.63;;;7.57;;
15486;SDS011;7845;53.698;10.078;2023-09-08T01:47:39;8.20;;;7.07;;
15486;SDS011;7845;53.698;10.078;2023-09-08T01:50:11;10.10;;;8.40;;
15486;SDS011;7845;53.698;10.078;2023-09-08T01:52:37;9.63;;;7.83;;
15486;SDS011;7845;53.698;10.078;2023-09-08T01:55:05;11.40;;;7.90;;
15486;SDS011;7845;53.698;10.078;2023-09-08T01:57:32;9.30;;;8.30;;
15486;SDS011;7845;53.698;10.078;2023-09-08T01:59:58;16.13;;;8.13;;
15486;SDS011;7845;53.698;10.078;2023-09-08T02:02:28;9.13;;;8.00;;
15486;SDS011;7845;53.698;10.078;2023-09-08T02:04:56;10.17;;;8.40;;
15486;SDS011;7845;53.698;10.078;2023-09-08T02:07:22;8.43;;;7.50;;
15486;SDS011;7845;53.698;10.078;2023-09-08T02:09:48;9.63;;;8.17;;
15486;SDS011;7845;53.698;10.078;2023-09-08T02:12:13;9.73;;;8.10;;
15486;SDS011;7845;53.698;10.078;2023-09-08T02:14:39;11.80;;;8.27;;
15486;SDS011;7845;53.698;10.078;2023-09-08T02:17:04;9.47;;;8.03;;
15486;SDS011;7845;53.698;10.078;2023-09-08T02:19:37;10.60;;;8.30;;
15486;SDS011;7845;53.698;10.078;2023-09-08T02:22:02;11.23;;;7.87;;
15486;SDS011;7845;53.698;10.078;2023-09-08T02:24:27;9.23;;;7.70;;
15486;SDS011;7845;53.698;10.078;2023-09-08T02:26:56;13.60;;;8.40;;
15486;SDS011;7845;53.698;10.078;2023-09-08T02:29:28;10.70;;;8.10;;
15486;SDS011;7845;53.698;10.078;2023-09-08T02:31:54;8.17;;;7.27;;
15486;SDS011;7845;53.698;10.078;2023-09-08T02:34:19;10.87;;;8.10;;
15486;SDS011;7845;53.698;10.078;2023-09-08T02:36:44;9.43;;;8.30;;
15486;SDS011;7845;53.698;10.078;2023-09-08T02:39:12;14.13;;;7.97;;
15486;SDS011;7845;53.698;10.078;2023-09-08T02:41:38;10.37;;;8.67;;
15486;SDS011;7845;53.698;10.078;2023-09-08T02:44:04;9.70;;;8.20;;
15486;SDS011;7845;53.698;10.078;2023-09-08T02:46:29;9.97;;;8.17;;
15486;SDS011;7845;53.698;10.078;2023-09-08T02:48:55;9.20;;;8.30;;
15486;SDS011;7845;53.698;10.078;2023-09-08T02:51:20;9.77;;;8.53;;
15486;SDS011;7845;53.698;10.078;2023-09-08T02:53:45;10.80;;;8.03;;
15486;SDS011;7845;53.698;10.078;2023-09-08T02:56:11;9.63;;;8.60;;
15486;SDS011;7845;53.698;10.078;2023-09-08T02:58:36;11.23;;;7.80;;
15486;SDS011;7845;53.698;10.078;2023-09-08T03:01:14;10.07;;;8.70;;
15486;SDS011;7845;53.698;10.078;2023-09-08T03:03:42;9.30;;;7.70;;
15486;SDS011;7845;53.698;10.078;2023-09-08T03:06:08;10.50;;;7.37;;
15486;SDS011;7845;53.698;10.078;2023-09-08T03:08:34;10.57;;;7.70;;
15486;SDS011;7845;53.698;10.078;2023-09-08T03:11:01;10.60;;;7.73;;
15486;SDS011;7845;53.698;10.078;2023-09-08T03:13:27;10.97;;;7.37;;
15486;SDS011;7845;53.698;10.078;2023-09-08T03:15:54;8.47;;;7.10;;
15486;SDS011;7845;53.698;10.078;2023-09-08T03:18:19;8.13;;;7.27;;
15486;SDS011;7845;53.698;10.078;2023-09-08T03:20:49;9.93;;;8.27;;
15486;SDS011;7845;53.698;10.078;2023-09-08T03:23:15;10.10;;;7.87;;
15486;SDS011;7845;53.698;10.078;2023-09-08T03:33:03;9.50;;;7.40;;
15486;SDS011;7845;53.698;10.078;2023-09-08T03:35:28;10.23;;;7.83;;
15486;SDS011;7845;53.698;10.078;2023-09-08T03:37:54;9.73;;;8.50;;
15486;SDS011;7845;53.698;10.078;2023-09-08T03:40:23;8.40;;;7.37;;
15486;SDS011;7845;53.698;10.078;2023-09-08T03:42:48;8.50;;;7.50;;
15486;SDS011;7845;53.698;10.078;2023-09-08T03:45:14;8.80;;;7.67;;
15486;SDS011;7845;53.698;10.078;2023-09-08T03:47:39;9.23;;;7.40;;
15486;SDS011;7845;53.698;10.078;2023-09-08T03:50:07;8.40;;;6.97;;
15486;SDS011;7845;53.698;10.078;2023-09-08T03:52:35;11.57;;;7.70;;
15486;SDS011;7845;53.698;10.078;2023-09-08T03:55:01;8.93;;;7.70;;
15486;SDS011;7845;53.698;10.078;2023-09-08T03:57:26;9.03;;;6.97;;
15486;SDS011;7845;53.698;10.078;2023-09-08T03:59:51;8.60;;;7.27;;
15486;SDS011;7845;53.698;10.078;2023-09-08T04:02:16;9.03;;;6.60;;
15486;SDS011;7845;53.698;10.078;2023-09-08T04:04:42;9.83;;;7.30;;
15486;SDS011;7845;53.698;10.078;2023-09-08T04:07:07;8.20;;;6.70;;
15486;SDS011;7845;53.698;10.078;2023-09-08T04:09:32;8.73;;;7.03;;
15486;SDS011;7845;53.698;10.078;2023-09-08T04:11:57;7.80;;;6.60;;
15486;SDS011;7845;53.698;10.078;2023-09-08T04:14:23;8.47;;;7.60;;
15486;SDS011;7845;53.698;10.078;2023-09-08T04:16:53;7.97;;;7.03;;
15486;SDS011;7845;53.698;10.078;2023-09-08T04:19:19;9.00;;;7.47;;
15486;SDS011;7845;53.698;10.078;2023-09-08T04:21:44;8.57;;;7.50;;
15486;SDS011;7845;53.698;10.078;2023-09-08T04:24:09;8.90;;;6.53;;
15486;SDS011;7845;53.698;10.078;2023-09-08T04:26:35;9.93;;;6.50;;
15486;SDS011;7845;53.698;10.078;2023-09-08T04:29:01;9.53;;;7.33;;
15486;SDS011;7845;53.698;10.078;2023-09-08T04:31:26;7.87;;;6.50;;
15486;SDS011;7845;53.698;10.078;2023-09-08T04:33:51;6.80;;;5.30;;
15486;SDS011;7845;53.698;10.078;2023-09-08T04:36:20;8.67;;;6.13;;
15486;SDS011;7845;53.698;10.078;2023-09-08T04:38:45;9.60;;;7.30;;
15486;SDS011;7845;53.698;10.078;2023-09-08T04:41:12;10.77;;;7.30;;
15486;SDS011;7845;53.698;10.078;2023-09-08T04:43:37;11.03;;;7.67;;
15486;SDS011;7845;53.698;10.078;2023-09-08T04:46:02;9.70;;;7.70;;
15486;SDS011;7845;53.698;10.078;2023-09-08T04:48:28;11.27;;;8.70;;
15486;SDS011;7845;53.698;10.078;2023-09-08T04:50:54;9.83;;;8.00;;
15486;SDS011;7845;53.698;10.078;2023-09-08T04:53:19;12.53;;;9.07;;
15486;SDS011;7845;53.698;10.078;2023-09-08T04:55:44;15.13;;;8.80;;
15486;SDS011;7845;53.698;10.078;2023-09-08T04:58:10;11.77;;;8.40;;
15486;SDS011;7845;53.698;10.078;2023-09-08T05:00:37;8.57;;;7.37;;
15486;SDS011;7845;53.698;10.078;2023-09-08T05:03:03;12.00;;;8.60;;
15486;SDS011;7845;53.698;10.078;2023-09-08T05:05:29;10.53;;;9.10;;
15486;SDS011;7845;53.698;10.078;2023-09-08T05:07:54;12.50;;;9.63;;
15486;SDS011;7845;53.698;10.078;2023-09-08T05:10:21;12.27;;;9.10;;
15486;SDS011;7845;53.698;10.078;2023-09-08T05:12:48;9.67;;;8.17;;
15486;SDS011;7845;53.698;10.078;2023-09-08T05:15:14;9.77;;;7.33;;
15486;SDS011;7845;53.698;10.078;2023-09-08T05:17:41;11.83;;;8.23;;
15486;SDS011;7845;53.698;10.078;2023-09-08T05:20:07;9.57;;;8.57;;
15486;SDS011;7845;53.698;10.078;2023-09-08T05:22:32;9.53;;;8.13;;
15486;SDS011;7845;53.698;10.078;2023-09-08T05:24:58;9.93;;;8.33;;
15486;SDS011;7845;53.698;10.078;2023-09-08T05:27:23;10.97;;;9.87;;
15486;SDS011;7845;53.698;10.078;2023-09-08T05:29:48;11.93;;;10.27;;
15486;SDS011;7845;53.698;10.078;2023-09-08T05:32:14;10.80;;;9.50;;
15486;SDS011;7845;53.698;10.078;2023-09-08T05:34:39;10.77;;;9.43;;
15486;SDS011;7845;53.698;10.078;2023-09-08T05:37:05;10.57;;;8.97;;
15486;SDS011;7845;53.698;10.078;2023-09-08T05:39:30;10.70;;;9.30;;
15486;SDS011;7845;53.698;10.078;2023-09-08T05:41:56;10.00;;;8.57;;
15486;SDS011;7845;53.698;10.078;2023-09-08T05:44:21;10.90;;;8.10;;
15486;SDS011;7845;53.698;10.078;2023-09-08T05:46:50;13.23;;;10.30;;
15486;SDS011;7845;53.698;10.078;2023-09-08T05:49:15;10.40;;;8.73;;
15486;SDS011;7845;53.698;10.078;2023-09-08T05:51:44;8.50;;;7.27;;
15486;SDS011;7845;53.698;10.078;2023-09-08T05:54:10;9.97;;;8.57;;
15486;SDS011;7845;53.698;10.078;2023-09-08T05:56:36;11.90;;;9.23;;
15486;SDS011;7845;53.698;10.078;2023-09-08T05:59:02;10.30;;;7.93;;
15486;SDS011;7845;53.698;10.078;2023-09-08T06:01:30;11.43;;;8.17;;
15486;SDS011;7845;53.698;10.078;2023-09-08T06:03:58;10.07;;;8.67;;
15486;SDS011;7845;53.698;10.078;2023-09-08T06:06:24;12.07;;;9.60;;
15486;SDS011;7845;53.698;10.078;2023-09-08T06:08:50;10.60;;;9.03;;
15486;SDS011;7845;53.698;10.078;2023-09-08T06:11:15;10.23;;;8.40;;
15486;SDS011;7845;53.698;10.078;2023-09-08T06:13:41;10.90;;;9.23;;
15486;SDS011;7845;53.698;10.078;2023-09-08T06:16:07;10.27;;;9.17;;
15486;SDS011;7845;53.698;10.078;2023-09-08T06:18:33;11.13;;;9.17;;
15486;SDS011;7845;53.698;10.078;2023-09-08T06:21:08;13.00;;;9.83;;
15486;SDS011;7845;53.698;10.078;2023-09-08T06:23:34;11.50;;;8.83;;
15486;SDS011;7845;53.698;10.078;2023-09-08T06:25:59;12.03;;;9.73;;
15486;SDS011;7845;53.698;10.078;2023-09-08T06:28:26;11.83;;;9.97;;
15486;SDS011;7845;53.698;10.078;2023-09-08T06:30:54;11.23;;;8.80;;
15486;SDS011;7845;53.698;10.078;2023-09-08T06:33:19;11.57;;;9.20;;
15486;SDS011;7845;53.698;10.078;2023-09-08T06:35:45;11.20;;;8.50;;
15486;SDS011;7845;53.698;10.078;2023-09-08T06:38:12;10.23;;;9.13;;
15486;SDS011;7845;53.698;10.078;2023-09-08T06:40:38;10.70;;;8.60;;
15486;SDS011;7845;53.698;10.078;2023-09-08T06:43:04;12.20;;;9.33;;
15486;SDS011;7845;53.698;10.078;2023-09-08T06:45:29;10.30;;;9.00;;
15486;SDS011;7845;53.698;10.078;2023-09-08T06:47:55;11.43;;;8.77;;
15486;SDS011;7845;53.698;10.078;2023-09-08T06:50:21;14.13;;;9.40;;
15486;SDS011;7845;53.698;10.078;2023-09-08T06:52:47;10.27;;;9.17;;
15486;SDS011;7845;53.698;10.078;2023-09-08T06:55:13;9.83;;;8.80;;
15486;SDS011;7845;53.698;10.078;2023-09-08T06:57:42;10.37;;;8.93;;
15486;SDS011;7845;53.698;10.078;2023-09-08T07:00:08;10.70;;;8.87;;
15486;SDS011;7845;53.698;10.078;2023-09-08T07:02:38;11.13;;;9.00;;
15486;SDS011;7845;53.698;10.078;2023-09-08T07:05:03;12.63;;;8.40;;
15486;SDS011;7845;53.698;10.078;2023-09-08T07:07:36;12.87;;;8.23;;
15486;SDS011;7845;53.698;10.078;2023-09-08T07:10:03;9.63;;;8.63;;
15486;SDS011;7845;53.698;10.078;2023-09-08T07:12:30;11.70;;;8.20;;
15486;SDS011;7845;53.698;10.078;2023-09-08T07:14:57;10.80;;;8.10;;
15486;SDS011;7845;53.698;10.078;2023-09-08T07:17:23;10.80;;;8.70;;
15486;SDS011;7845;53.698;10.078;2023-09-08T07:19:52;12.03;;;9.00;;
15486;SDS011;7845;53.698;10.078;2023-09-08T07:22:17;10.03;;;7.93;;
15486;SDS011;7845;53.698;10.078;2023-09-08T07:24:43;9.30;;;8.00;;
15486;SDS011;7845;53.698;10.078;2023-09-08T07:27:09;10.90;;;7.50;;
15486;SDS011;7845;53.698;10.078;2023-09-08T07:29:39;8.93;;;7.80;;
15486;SDS011;7845;53.698;10.078;2023-09-08T07:32:05;11.10;;;9.33;;
15486;SDS011;7845;53.698;10.078;2023-09-08T07:34:32;9.83;;;8.60;;
15486;SDS011;7845;53.698;10.078;2023-09-08T07:37:00;9.97;;;7.90;;
15486;SDS011;7845;53.698;10.078;2023-09-08T07:39:28;11.83;;;8.87;;
15486;SDS011;7845;53.698;10.078;2023-09-08T07:41:55;10.17;;;7.90;;
15486;SDS011;7845;53.698;10.078;2023-09-08T07:44:21;9.27;;;7.67;;
15486;SDS011;7845;53.698;10.078;2023-09-08T07:46:46;11.10;;;8.80;;
15486;SDS011;7845;53.698;10.078;2023-09-08T07:49:13;9.13;;;8.13;;
15486;SDS011;7845;53.698;10.078;2023-09-08T07:51:40;8.93;;;7.90;;
15486;SDS011;7845;53.698;10.078;2023-09-08T07:54:06;11.93;;;9.33;;
15486;SDS011;7845;53.698;10.078;2023-09-08T07:56:31;10.70;;;8.60;;
15486;SDS011;7845;53.698;10.078;2023-09-08T07:58:57;9.07;;;8.13;;
15486;SDS011;7845;53.698;10.078;2023-09-08T08:01:23;11.10;;;7.93;;
15486;SDS011;7845;53.698;10.078;2023-09-08T08:03:48;12.93;;;8.50;;
15486;SDS011;7845;53.698;10.078;2023-09-08T08:06:15;10.23;;;8.00;;
15486;SDS011;7845;53.698;10.078;2023-09-08T08:08:40;8.90;;;7.60;;
15486;SDS011;7845;53.698;10.078;2023-09-08T08:11:12;10.37;;;7.80;;
15486;SDS011;7845;53.698;10.078;2023-09-08T08:13:38;8.63;;;7.60;;
15486;SDS011;7845;53.698;10.078;2023-09-08T08:16:05;9.03;;;8.10;;
15486;SDS011;7845;53.698;10.078;2023-09-08T08:18:31;11.70;;;7.23;;
15486;SDS011;7845;53.698;10.078;2023-09-08T08:20:56;11.30;;;7.60;;
15486;SDS011;7845;53.698;10.078;2023-09-08T08:23:21;9.97;;;7.27;;
15486;SDS011;7845;53.698;10.078;2023-09-08T08:25:48;8.80;;;7.20;;
15486;SDS011;7845;53.698;10.078;2023-09-08T08:28:14;9.27;;;7.07;;
15486;SDS011;7845;53.698;10.078;2023-09-08T08:30:39;10.20;;;8.00;;
15486;SDS011;7845;53.698;10.078;2023-09-08T08:33:05;10.43;;;7.53;;
15486;SDS011;7845;53.698;10.078;2023-09-08T08:35:32;8.20;;;7.00;;
15486;SDS011;7845;53.698;10.078;2023-09-08T08:37:57;9.97;;;7.90;;
15486;SDS011;7845;53.698;10.078;2023-09-08T08:40:24;11.93;;;7.40;;
15486;SDS011;7845;53.698;10.078;2023-09-08T08:42:54;8.47;;;6.83;;
15486;SDS011;7845;53.698;10.078;2023-09-08T08:45:20;10.47;;;7.30;;
15486;SDS011;7845;53.698;10.078;2023-09-08T08:47:48;7.90;;;7.10;;
15486;SDS011;7845;53.698;10.078;2023-09-08T08:50:14;9.07;;;6.80;;
15486;SDS011;7845;53.698;10.078;2023-09-08T08:52:42;14.10;;;9.83;;
15486;SDS011;7845;53.698;10.078;2023-09-08T08:55:07;10.73;;;8.17;;
15486;SDS011;7845;53.698;10.078;2023-09-08T08:57:33;9.53;;;7.47;;
15486;SDS011;7845;53.698;10.078;2023-09-08T08:59:59;8.70;;;6.77;;
15486;SDS011;7845;53.698;10.078;2023-09-08T09:02:25;9.57;;;7.77;;
15486;SDS011;7845;53.698;10.078;2023-09-08T09:04:53;9.50;;;7.60;;
15486;SDS011;7845;53.698;10.078;2023-09-08T09:07:18;8.80;;;7.47;;
15486;SDS011;7845;53.698;10.078;2023-09-08T09:09:45;9.87;;;7.10;;
15486;SDS011;7845;53.698;10.078;2023-09-08T09:12:13;8.17;;;7.23;;
15486;SDS011;7845;53.698;10.078;2023-09-08T09:14:38;7.60;;;6.77;;
15486;SDS011;7845;53.698;10.078;2023-09-08T09:17:11;8.83;;;6.50;;
15486;SDS011;7845;53.698;10.078;2023-09-08T09:19:39;9.93;;;6.83;;
15486;SDS011;7845;53.698;10.078;2023-09-08T09:22:05;8.47;;;7.00;;
15486;SDS011;7845;53.698;10.078;2023-09-08T09:27:03;8.17;;;6.17;;
15486;SDS011;7845;53.698;10.078;2023-09-08T09:29:30;8.97;;;6.47;;
15486;SDS011;7845;53.698;10.078;2023-09-08T09:31:57;7.73;;;6.30;;
15486;SDS011;7845;53.698;10.078;2023-09-08T09:34:33;8.53;;;6.50;;
15486;SDS011;7845;53.698;10.078;2023-09-08T09:36:59;8.17;;;6.00;;
15486;SDS011;7845;53.698;10.078;2023-09-08T09:39:25;8.90;;;6.67;;
15486;SDS011;7845;53.698;10.078;2023-09-08T09:41:55;6.87;;;5.40;;
15486;SDS011;7845;53.698;10.078;2023-09-08T09:44:22;8.90;;;6.73;;
15486;SDS011;7845;53.698;10.078;2023-09-08T09:46:48;7.33;;;6.07;;
15486;SDS011;7845;53.698;10.078;2023-09-08T09:49:16;8.67;;;6.40;;
15486;SDS011;7845;53.698;10.078;2023-09-08T09:51:44;9.70;;;6.77;;
15486;SDS011;7845;53.698;10.078;2023-09-08T09:54:15;7.50;;;5.80;;
15486;SDS011;7845;53.698;10.078;2023-09-08T09:56:43;8.50;;;6.40;;
15486;SDS011;7845;53.698;10.078;2023-09-08T09:59:09;8.57;;;6.87;;
15486;SDS011;7845;53.698;10.078;2023-09-08T10:01:36;10.10;;;6.97;;
15486;SDS011;7845;53.698;10.078;2023-09-08T10:04:03;7.67;;;5.80;;
15486;SDS011;7845;53.698;10.078;2023-09-08T10:06:33;9.27;;;6.70;;
15486;SDS011;7845;53.698;10.078;2023-09-08T10:09:01;8.90;;;6.47;;
15486;SDS011;7845;53.698;10.078;2023-09-08T10:11:34;10.40;;;5.83;;
15486;SDS011;7845;53.698;10.078;2023-09-08T10:14:03;7.13;;;5.90;;
15486;SDS011;7845;53.698;10.078;2023-09-08T10:16:30;8.50;;;6.20;;
15486;SDS011;7845;53.698;10.078;2023-09-08T10:18:59;7.87;;;5.73;;
15486;SDS011;7845;53.698;10.078;2023-09-08T10:21:26;11.47;;;6.70;;
15486;SDS011;7845;53.698;10.078;2023-09-08T10:23:57;8.33;;;5.73;;
15486;SDS011;7845;53.698;10.078;2023-09-08T10:26:31;9.50;;;7.10;;
15486;SDS011;7845;53.698;10.078;2023-09-08T10:28:59;9.43;;;6.37;;
15486;SDS011;7845;53.698;10.078;2023-09-08T10:31:26;7.30;;;6.03;;
15486;SDS011;7845;53.698;10.078;2023-09-08T10:34:01;10.97;;;6.27;;
15486;SDS011;7845;53.698;10.078;2023-09-08T10:36:27;8.30;;;6.00;;
15486;SDS011;7845;53.698;10.078;2023-09-08T10:38:53;7.70;;;5.17;;
15486;SDS011;7845;53.698;10.078;2023-09-08T10:43:58;7.70;;;6.10;;
15486;SDS011;7845;53.698;10.078;2023-09-08T10:46:27;7.67;;;5.83;;
15486;SDS011;7845;53.698;10.078;2023-09-08T10:48:54;7.80;;;6.00;;
15486;SDS011;7845;53.698;10.078;2023-09-08T10:51:25;7.87;;;5.50;;
15486;SDS011;7845;53.698;10.078;2023-09-08T10:53:50;7.70;;;5.83;;
15486;SDS011;7845;53.698;10.078;2023-09-08T10:56:16;7.00;;;5.80;;
15486;SDS011;7845;53.698;10.078;2023-09-08T10:58:43;8.63;;;6.43;;
15486;SDS011;7845;53.698;10.078;2023-09-08T11:01:17;6.60;;;5.03;;
15486;SDS011;7845;53.698;10.078;2023-09-08T11:03:52;7.73;;;5.77;;
15486;SDS011;7845;53.698;10.078;2023-09-08T11:06:18;6.10;;;5.50;;
15486;SDS011;7845;53.698;10.078;2023-09-08T11:08:49;8.13;;;5.90;;
15486;SDS011;7845;53.698;10.078;2023-09-08T11:11:18;6.70;;;5.80;;
15486;SDS011;7845;53.698;10.078;2023-09-08T11:13:43;10.00;;;6.10;;
15486;SDS011;7845;53.698;10.078;2023-09-08T11:16:10;7.43;;;5.83;;
15486;SDS011;7845;53.698;10.078;2023-09-08T11:18:36;6.67;;;5.60;;
15486;SDS011;7845;53.698;10.078;2023-09-08T11:21:02;9.07;;;6.03;;
15486;SDS011;7845;53.698;10.078;2023-09-08T11:23:32;7.33;;;5.70;;
15486;SDS011;7845;53.698;10.078;2023-09-08T11:25:58;6.70;;;5.60;;
15486;SDS011;7845;53.698;10.078;2023-09-08T11:28:26;10.63;;;5.83;;
15486;SDS011;7845;53.698;10.078;2023-09-08T11:30:53;6.80;;;5.40;;
15486;SDS011;7845;53.698;10.078;2023-09-08T11:33:21;7.07;;;5.00;;
15486;SDS011;7845;53.698;10.078;2023-09-08T11:35:50;7.87;;;5.23;;
15486;SDS011;7845;53.698;10.078;2023-09-08T11:38:25;8.03;;;5.63;;
15486;SDS011;7845;53.698;10.078;2023-09-08T11:40:52;7.27;;;5.83;;
15486;SDS011;7845;53.698;10.078;2023-09-08T11:43:20;8.30;;;5.43;;
15486;SDS011;7845;53.698;10.078;2023-09-08T11:45:47;6.70;;;4.80;;
15486;SDS011;7845;53.698;10.078;2023-09-08T11:48:13;6.90;;;5.60;;
15486;SDS011;7845;53.698;10.078;2023-09-08T11:50:40;7.10;;;4.80;;
15486;SDS011;7845;53.698;10.078;2023-09-08T11:53:06;6.60;;;5.10;;
15486;SDS011;7845;53.698;10.078;2023-09-08T11:55:31;6.10;;;5.07;;
15486;SDS011;7845;53.698;10.078;2023-09-08T11:57:56;6.13;;;5.17;;
15486;SDS011;7845;53.698;10.078;2023-09-08T12:00:23;6.17;;;4.97;;
15486;SDS011;7845;53.698;10.078;2023-09-08T12:02:50;6.27;;;4.90;;
15486;SDS011;7845;53.698;10.078;2023-09-08T12:05:25;6.30;;;4.73;;
15486;SDS011;7845;53.698;10.078;2023-09-08T12:07:52;7.90;;;5.03;;
15486;SDS011;7845;53.698;10.078;2023-09-08T12:10:19;5.63;;;4.20;;
15486;SDS011;7845;53.698;10.078;2023-09-08T12:12:53;6.00;;;4.80;;
15486;SDS011;7845;53.698;10.078;2023-09-08T12:15:36;9.47;;;4.93;;
15486;SDS011;7845;53.698;10.078;2023-09-08T12:18:12;5.90;;;4.40;;
15486;SDS011;7845;53.698;10.078;2023-09-08T12:20:41;6.30;;;4.20;;
15486;SDS011;7845;53.698;10.078;2023-09-08T12:23:19;5.57;;;4.50;;
15486;SDS011;7845;53.698;10.078;2023-09-08T12:25:46;6.53;;;4.00;;
15486;SDS011;7845;53.698;10.078;2023-09-08T12:28:12;6.23;;;4.43;;
15486;SDS011;7845;53.698;10.078;2023-09-08T12:30:38;6.10;;;4.17;;
15486;SDS011;7845;53.698;10.078;2023-09-08T12:33:03;6.57;;;4.43;;
15486;SDS011;7845;53.698;10.078;2023-09-08T12:35:29;5.43;;;4.30;;
15486;SDS011;7845;53.698;10.078;2023-09-08T12:38:04;6.63;;;4.73;;
15486;SDS011;7845;53.698;10.078;2023-09-08T12:40:32;6.30;;;4.90;;
15486;SDS011;7845;53.698;10.078;2023-09-08T12:43:00;6.43;;;4.30;;
15486;SDS011;7845;53.698;10.078;2023-09-08T12:45:28;5.10;;;4.00;;
15486;SDS011;7845;53.698;10.078;2023-09-08T12:47:54;5.93;;;4.57;;
15486;SDS011;7845;53.698;10.078;2023-09-08T12:50:23;7.03;;;4.93;;
15486;SDS011;7845;53.698;10.078;2023-09-08T12:52:48;7.90;;;5.03;;
15486;SDS011;7845;53.698;10.078;2023-09-08T12:55:14;6.20;;;4.30;;
15486;SDS011;7845;53.698;10.078;2023-09-08T12:57:39;6.43;;;5.20;;
15486;SDS011;7845;53.698;10.078;2023-09-08T13:00:06;6.60;;;4.37;;
15486;SDS011;7845;53.698;10.078;2023-09-08T13:02:36;6.10;;;4.87;;
15486;SDS011;7845;53.698;10.078;2023-09-08T13:05:02;6.63;;;4.50;;
15486;SDS011;7845;53.698;10.078;2023-09-08T13:07:27;6.20;;;4.50;;
15486;SDS011;7845;53.698;10.078;2023-09-08T13:09:53;5.93;;;4.60;;
15486;SDS011;7845;53.698;10.078;2023-09-08T13:12:19;7.60;;;4.17;;
15486;SDS011;7845;53.698;10.078;2023-09-08T13:14:45;6.40;;;4.70;;
15486;SDS011;7845;53.698;10.078;2023-09-08T13:17:12;8.30;;;4.30;;
15486;SDS011;7845;53.698;10.078;2023-09-08T13:19:39;5.37;;;4.60;;
15486;SDS011;7845;53.698;10.078;2023-09-08T13:22:05;7.57;;;5.10;;
15486;SDS011;7845;53.698;10.078;2023-09-08T13:24:30;6.00;;;4.80;;
15486;SDS011;7845;53.698;10.078;2023-09-08T13:26:56;7.53;;;4.50;;
15486;SDS011;7845;53.698;10.078;2023-09-08T13:29:21;6.27;;;4.40;;
15486;SDS011;7845;53.698;10.078;2023-09-08T13:31:48;5.10;;;4.10;;
15486;SDS011;7845;53.698;10.078;2023-09-08T13:34:13;8.03;;;5.07;;
15486;SDS011;7845;53.698;10.078;2023-09-08T13:36:39;7.90;;;4.80;;
15486;SDS011;7845;53.698;10.078;2023-09-08T13:39:04;6.03;;;4.30;;
15486;SDS011;7845;53.698;10.078;2023-09-08T13:44:16;6.40;;;4.43;;
15486;SDS011;7845;53.698;10.078;2023-09-08T13:46:43;6.77;;;4.73;;
15486;SDS011;7845;53.698;10.078;2023-09-08T13:49:08;5.40;;;4.40;;
15486;SDS011;7845;53.698;10.078;2023-09-08T13:51:34;5.57;;;4.43;;
15486;SDS011;7845;53.698;10.078;2023-09-08T13:53:59;7.60;;;4.50;;
15486;SDS011;7845;53.698;10.078;2023-09-08T13:56:27;11.60;;;4.47;;
15486;SDS011;7845;53.698;10.078;2023-09-08T13:58:53;5.23;;;3.90;;
15486;SDS011;7845;53.698;10.078;2023-09-08T14:01:18;5.40;;;4.13;;
15486;SDS011;7845;53.698;10.078;2023-09-08T14:03:43;6.33;;;4.03;;
15486;SDS011;7845;53.698;10.078;2023-09-08T14:06:09;5.43;;;4.00;;
15486;SDS011;7845;53.698;10.078;2023-09-08T14:08:34;7.00;;;4.53;;
15486;SDS011;7845;53.698;10.078;2023-09-08T14:11:01;6.67;;;4.20;;
15486;SDS011;7845;53.698;10.078;2023-09-08T14:13:27;7.53;;;4.37;;
15486;SDS011;7845;53.698;10.078;2023-09-08T14:15:53;6.27;;;4.07;;
15486;SDS011;7845;53.698;10.078;2023-09-08T14:18:19;5.23;;;3.80;;
15486;SDS011;7845;53.698;10.078;2023-09-08T14:20:44;7.80;;;4.57;;
15486;SDS011;7845;53.698;10.078;2023-09-08T14:23:09;5.47;;;4.30;;
15486;SDS011;7845;53.698;10.078;2023-09-08T14:25:35;5.23;;;3.73;;
15486;SDS011;7845;53.698;10.078;2023-09-08T14:28:00;6.70;;;4.60;;
15486;SDS011;7845;53.698;10.078;2023-09-08T14:30:28;8.60;;;4.07;;
15486;SDS011;7845;53.698;10.078;2023-09-08T14:32:53;5.67;;;4.40;;
15486;SDS011;7845;53.698;10.078;2023-09-08T14:35:19;5.80;;;4.20;;
15486;SDS011;7845;53.698;10.078;2023-09-08T14:37:48;6.03;;;4.40;;
15486;SDS011;7845;53.698;10.078;2023-09-08T14:40:15;8.77;;;4.13;;
15486;SDS011;7845;53.698;10.078;2023-09-08T14:42:42;5.60;;;3.80;;
15486;SDS011;7845;53.698;10.078;2023-09-08T14:45:07;7.43;;;4.10;;
15486;SDS011;7845;53.698;10.078;2023-09-08T14:47:34;6.97;;;4.30;;
15486;SDS011;7845;53.698;10.078;2023-09-08T14:49:59;6.07;;;4.30;;
15486;SDS011;7845;53.698;10.078;2023-09-08T14:52:25;5.80;;;4.27;;
15486;SDS011;7845;53.698;10.078;2023-09-08T14:54:50;8.10;;;4.17;;
15486;SDS011;7845;53.698;10.078;2023-09-08T14:57:15;7.27;;;4.37;;